Terminal Aerodrome Forecast
Issued by NWS Omaha/Valley, NE

Home | Current Version | Previous Version | Text Only | Print | Product List | Glossary On
Versions: 1 2 3 4 5 6 7 8 9 10 11 12 13 14 15 16 17 18 19 20 21 22 23 24 25 26 27 28 29 30 31 32 33 34 35 36
000
FTUS43 KOAX 172325
TAFLNK
TAF
KLNK 172325Z 1800/1824 12005KT P6SM SKC
     FM180400 VRB03KT P6SM BKN120
     FM180800 11005KT 5SM BR SCT015 BKN080
      TEMPO 1811/1815 2SM BR BKN007
     FM181600 14010KT P6SM SCT025
     FM181900 14014KT P6SM SCT050=

USA.gov is the U.S. government's official web portal to all federal, state and local government web resources and services.